createdAt,value
2022-12-18T00:00:42.437Z,3.03
2022-12-18T00:03:11.487Z,2.81
2022-12-18T00:05:50.183Z,4.08
2022-12-18T00:08:19.407Z,2.91
2022-12-18T00:10:48.542Z,3.17
2022-12-18T00:13:16.746Z,3.30
2022-12-18T00:15:44.685Z,3.84
2022-12-18T00:18:16.091Z,2.84
2022-12-18T00:20:47.129Z,3.83
2022-12-18T00:23:16.826Z,4.07
2022-12-18T00:25:45.189Z,4.27
2022-12-18T00:28:13.384Z,3.54
2022-12-18T00:30:41.474Z,4.05
2022-12-18T00:33:10.144Z,4.28
2022-12-18T00:35:38.305Z,4.36
2022-12-18T00:38:07.746Z,4.91
2022-12-18T00:40:40.172Z,4.82
2022-12-18T00:43:07.431Z,5.03
2022-12-18T00:45:36.824Z,5.02
2022-12-18T00:48:05.369Z,5.14
2022-12-18T00:50:33.579Z,5.10
2022-12-18T00:53:02.308Z,5.16
2022-12-18T00:55:30.392Z,5.16
2022-12-18T00:58:00.620Z,5.14
2022-12-18T01:00:29.899Z,5.28
2022-12-18T01:02:58.139Z,5.24
2022-12-18T01:05:26.710Z,4.20
2022-12-18T01:07:55.109Z,5.07
2022-12-18T01:10:32.917Z,4.89
2022-12-18T01:13:04.687Z,5.09
2022-12-18T01:15:32.719Z,4.93
2022-12-18T01:18:00.793Z,5.00
2022-12-18T01:20:29.338Z,5.10
2022-12-18T01:22:57.298Z,5.18
2022-12-18T01:25:26.243Z,5.03
2022-12-18T01:27:54.547Z,4.98
2022-12-18T01:30:24.141Z,4.73
2022-12-18T01:32:56.503Z,5.00
2022-12-18T01:35:24.479Z,5.03
2022-12-18T01:37:56.328Z,4.85
2022-12-18T01:40:24.872Z,4.98
2022-12-18T01:42:54.559Z,4.87
2022-12-18T01:45:31.640Z,4.83
2022-12-18T01:48:03.124Z,4.87
2022-12-18T01:50:34.920Z,4.89
2022-12-18T01:53:08.724Z,4.81
2022-12-18T01:55:40.398Z,4.71
2022-12-18T01:58:08.847Z,4.79
2022-12-18T02:00:38.565Z,4.70
2022-12-18T02:03:06.940Z,4.59
2022-12-18T02:05:44.035Z,4.62
2022-12-18T02:08:19.271Z,4.61
2022-12-18T02:10:57.060Z,4.65
2022-12-18T02:13:32.539Z,4.87
2022-12-18T02:16:06.836Z,4.87
2022-12-18T02:18:37.496Z,4.83
2022-12-18T02:21:12.424Z,4.77
2022-12-18T02:23:49.625Z,4.60
2022-12-18T02:26:21.133Z,4.73
2022-12-18T02:28:58.957Z,4.72
2022-12-18T02:31:33.032Z,4.30
2022-12-18T02:34:02.878Z,4.64
2022-12-18T02:36:35.556Z,4.57
2022-12-18T02:39:04.420Z,4.31
2022-12-18T02:41:34.541Z,4.45
2022-12-18T02:44:04.140Z,4.38
2022-12-18T02:46:36.765Z,4.54
2022-12-18T02:49:23.023Z,4.63
2022-12-18T02:51:55.829Z,4.63
2022-12-18T02:54:46.267Z,4.57
2022-12-18T02:57:22.253Z,4.52
2022-12-18T02:59:59.407Z,4.42
2022-12-18T03:02:32.839Z,4.47
2022-12-18T03:05:07.416Z,4.52
2022-12-18T03:07:39.674Z,4.59
2022-12-18T03:10:15.018Z,4.60
2022-12-18T03:12:48.264Z,4.43
2022-12-18T03:15:19.846Z,4.33
2022-12-18T03:17:57.065Z,4.00
2022-12-18T03:20:29.794Z,3.29
2022-12-18T03:23:04.249Z,2.22
2022-12-18T03:25:33.756Z,3.01
2022-12-18T03:28:12.434Z,3.60
2022-12-18T03:30:43.417Z,3.96
2022-12-18T03:33:14.974Z,3.93
2022-12-18T03:35:46.577Z,4.16
2022-12-18T03:38:15.299Z,4.01
2022-12-18T03:40:54.318Z,4.20
2022-12-18T03:43:34.453Z,4.30
2022-12-18T03:46:07.725Z,4.40
2022-12-18T03:48:41.470Z,4.23
2022-12-18T03:51:15.572Z,4.10
2022-12-18T03:53:48.758Z,4.10
2022-12-18T03:56:18.602Z,4.02
2022-12-18T03:58:48.498Z,4.09
2022-12-18T04:01:27.778Z,4.17
2022-12-18T04:03:56.643Z,4.37
2022-12-18T04:06:27.971Z,4.20
2022-12-18T04:08:56.886Z,4.28
2022-12-18T04:11:27.163Z,4.22
2022-12-18T04:14:00.788Z,3.78
2022-12-18T04:16:30.943Z,3.79
2022-12-18T04:19:02.677Z,3.70
2022-12-18T04:21:36.676Z,3.30
2022-12-18T04:24:06.509Z,3.89
2022-12-18T04:26:37.002Z,3.94
2022-12-18T04:29:17.432Z,4.10
2022-12-18T04:31:45.605Z,4.24
2022-12-18T04:34:13.696Z,4.08
2022-12-18T04:36:49.417Z,4.06
2022-12-18T04:39:17.964Z,4.19
2022-12-18T04:41:47.382Z,3.91
2022-12-18T04:44:17.361Z,3.11
2022-12-18T04:46:45.867Z,3.54
2022-12-18T04:49:14.023Z,3.29
2022-12-18T04:51:42.033Z,3.83
2022-12-18T04:54:10.282Z,3.97
2022-12-18T04:56:38.392Z,3.77
2022-12-18T04:59:06.789Z,4.02
2022-12-18T05:01:37.844Z,4.19
2022-12-18T05:04:06.511Z,4.15
2022-12-18T05:06:34.377Z,3.84
2022-12-18T05:09:02.359Z,3.66
2022-12-18T05:11:30.285Z,3.72
2022-12-18T05:13:58.361Z,3.94
2022-12-18T05:16:26.514Z,3.84
2022-12-18T05:18:56.005Z,4.19
2022-12-18T05:21:23.902Z,4.08
2022-12-18T05:23:51.800Z,4.13
2022-12-18T05:26:20.575Z,4.18
2022-12-18T05:28:48.424Z,4.08
2022-12-18T05:31:17.146Z,3.93
2022-12-18T05:33:45.091Z,4.02
2022-12-18T05:36:14.752Z,4.08
2022-12-18T05:38:43.222Z,3.58
2022-12-18T05:41:11.736Z,3.45
2022-12-18T05:43:41.229Z,3.62
2022-12-18T05:46:12.502Z,3.62
2022-12-18T05:48:41.056Z,3.51
2022-12-18T05:51:11.610Z,3.06
2022-12-18T05:53:41.330Z,3.42
2022-12-18T05:56:12.377Z,3.12
2022-12-18T05:58:40.638Z,2.93
2022-12-18T06:01:11.112Z,2.73
2022-12-18T06:03:40.276Z,3.21
2022-12-18T06:06:15.857Z,3.73
2022-12-18T06:08:46.706Z,3.85
2022-12-18T06:11:15.362Z,4.05
2022-12-18T06:13:43.485Z,3.91
2022-12-18T06:16:11.995Z,4.06
2022-12-18T06:18:40.222Z,3.90
2022-12-18T06:21:08.244Z,3.86
2022-12-18T06:23:36.810Z,3.76
2022-12-18T06:26:12.611Z,4.06
2022-12-18T06:28:40.732Z,4.08
2022-12-18T06:31:09.731Z,4.38
2022-12-18T06:33:38.964Z,4.05
2022-12-18T06:36:09.975Z,4.13
2022-12-18T06:38:39.603Z,4.19
2022-12-18T06:41:10.486Z,3.95
2022-12-18T06:43:39.196Z,4.21
2022-12-18T06:46:07.705Z,3.55
2022-12-18T06:48:35.976Z,3.86
2022-12-18T06:51:05.405Z,4.02
2022-12-18T06:53:34.523Z,4.08
2022-12-18T06:56:09.238Z,4.14
2022-12-18T06:58:39.472Z,4.30
2022-12-18T07:01:09.183Z,4.18
2022-12-18T07:03:37.865Z,4.40
2022-12-18T07:06:07.002Z,4.46
2022-12-18T07:08:35.338Z,3.98
2022-12-18T07:11:05.966Z,4.30
2022-12-18T07:13:33.850Z,4.50
2022-12-18T07:16:18.318Z,4.06
2022-12-18T07:18:49.278Z,4.16
2022-12-18T07:21:18.920Z,4.11
2022-12-18T07:23:48.864Z,4.43
2022-12-18T07:26:18.912Z,4.45
2022-12-18T07:28:47.194Z,4.58
2022-12-18T07:31:18.027Z,4.18
2022-12-18T07:33:46.847Z,4.42
2022-12-18T07:36:15.504Z,4.58
2022-12-18T07:38:43.849Z,4.82
2022-12-18T07:41:13.226Z,4.73
2022-12-18T07:43:42.497Z,4.45
2022-12-18T07:46:11.846Z,4.63
2022-12-18T07:48:44.258Z,4.47
2022-12-18T07:51:22.140Z,4.40
2022-12-18T07:53:52.325Z,4.09
2022-12-18T07:56:30.127Z,4.59
2022-12-18T07:58:59.368Z,4.68
2022-12-18T08:01:27.931Z,4.58
2022-12-18T08:03:57.730Z,4.78
2022-12-18T08:06:26.216Z,4.41
2022-12-18T08:08:56.618Z,5.50
2022-12-18T08:11:26.237Z,5.99
2022-12-18T08:13:54.954Z,5.48
2022-12-18T08:16:24.226Z,4.96
2022-12-18T08:18:54.301Z,4.49
2022-12-18T08:21:27.255Z,4.74
2022-12-18T08:23:57.032Z,4.80
2022-12-18T08:26:31.829Z,5.02
2022-12-18T08:29:02.199Z,4.80
2022-12-18T08:31:32.457Z,4.75
2022-12-18T08:34:05.536Z,5.14
2022-12-18T08:36:36.870Z,5.13
2022-12-18T08:39:05.557Z,4.91
2022-12-18T08:41:34.424Z,5.09
2022-12-18T08:44:31.384Z,5.34
2022-12-18T08:46:59.890Z,5.29
2022-12-18T08:49:30.870Z,5.33
2022-12-18T08:52:33.185Z,5.02
2022-12-18T08:55:02.636Z,5.64
2022-12-18T08:57:31.159Z,5.62
2022-12-18T08:59:59.252Z,5.78
2022-12-18T09:02:27.427Z,5.72
2022-12-18T09:04:57.653Z,5.87
2022-12-18T09:07:26.440Z,5.72
2022-12-18T09:09:54.696Z,5.67
2022-12-18T09:12:24.075Z,5.66
2022-12-18T09:14:51.936Z,5.49
2022-12-18T09:17:20.047Z,5.39
2022-12-18T09:19:47.897Z,5.44
2022-12-18T09:22:15.819Z,5.49
2022-12-18T09:24:43.685Z,5.79
2022-12-18T09:27:11.891Z,5.72
2022-12-18T09:29:41.557Z,5.83
2022-12-18T09:32:20.550Z,5.71
2022-12-18T09:34:50.641Z,5.59
2022-12-18T09:37:18.646Z,5.08
2022-12-18T09:39:46.984Z,5.59
2022-12-18T09:42:20.324Z,5.41
2022-12-18T09:44:52.359Z,5.84
2022-12-18T09:47:22.809Z,5.86
2022-12-18T09:49:52.803Z,5.39
2022-12-18T09:52:25.586Z,5.87
2022-12-18T09:54:57.141Z,6.18
2022-12-18T09:57:26.667Z,5.84
2022-12-18T09:59:59.214Z,6.12
2022-12-18T10:02:28.723Z,6.01
2022-12-18T10:05:07.238Z,6.04
2022-12-18T10:07:44.012Z,6.22
2022-12-18T10:10:21.380Z,6.32
2022-12-18T10:12:57.257Z,5.99
2022-12-18T10:15:36.295Z,6.08
2022-12-18T10:18:09.819Z,6.15
2022-12-18T10:20:40.979Z,6.47
2022-12-18T10:23:16.804Z,6.66
2022-12-18T10:25:53.260Z,6.47
2022-12-18T10:28:21.952Z,6.65
2022-12-18T10:30:51.352Z,7.13
2022-12-18T10:33:21.875Z,7.56
2022-12-18T10:35:52.546Z,6.82
2022-12-18T10:38:25.946Z,6.67
2022-12-18T10:40:56.718Z,6.59
2022-12-18T10:43:27.711Z,7.07
2022-12-18T10:46:07.605Z,7.19
2022-12-18T10:48:37.480Z,7.42
2022-12-18T10:51:10.902Z,7.35
2022-12-18T10:53:42.889Z,7.62
2022-12-18T10:56:11.060Z,7.55
2022-12-18T10:58:40.864Z,7.04
2022-12-18T11:01:13.523Z,7.01
2022-12-18T11:03:44.663Z,7.36
2022-12-18T11:06:13.890Z,7.28
2022-12-18T11:08:43.689Z,6.99
2022-12-18T11:11:20.720Z,6.80
2022-12-18T11:13:57.477Z,7.22
2022-12-18T11:16:27.167Z,7.01
2022-12-18T11:18:55.440Z,6.74
2022-12-18T11:21:25.507Z,6.52
2022-12-18T11:23:54.756Z,6.82
2022-12-18T11:26:23.301Z,6.09
2022-12-18T11:28:53.805Z,6.31
2022-12-18T11:31:28.710Z,6.43
2022-12-18T11:34:28.201Z,6.60
2022-12-18T11:36:54.716Z,6.71
2022-12-18T11:39:29.760Z,6.39
2022-12-18T11:42:13.519Z,6.69
2022-12-18T11:44:47.667Z,6.66
2022-12-18T11:47:23.548Z,6.71
2022-12-18T11:49:52.244Z,6.28
2022-12-18T11:52:23.517Z,6.52
2022-12-18T11:54:55.096Z,6.37
2022-12-18T11:57:35.858Z,6.18
2022-12-18T12:00:09.810Z,6.63
2022-12-18T12:03:24.487Z,6.94
2022-12-18T12:06:10.111Z,6.95
2022-12-18T12:08:50.432Z,5.96
2022-12-18T12:11:22.336Z,6.32
2022-12-18T12:14:09.654Z,6.93
2022-12-18T12:16:40.746Z,6.29
2022-12-18T12:19:18.450Z,6.86
2022-12-18T12:21:49.334Z,6.64
2022-12-18T12:24:28.703Z,6.66
2022-12-18T12:27:03.788Z,6.51
2022-12-18T12:29:42.920Z,6.73
2022-12-18T12:32:23.320Z,7.27
2022-12-18T12:35:01.789Z,7.36
2022-12-18T12:37:40.586Z,7.39
2022-12-18T12:40:40.836Z,7.33
2022-12-18T12:43:15.518Z,7.47
2022-12-18T12:45:49.347Z,7.54
2022-12-18T12:48:23.045Z,7.26
2022-12-18T12:50:53.344Z,7.41
2022-12-18T12:53:27.869Z,7.50
2022-12-18T12:55:56.852Z,7.54
2022-12-18T12:58:32.346Z,7.73
2022-12-18T13:01:07.191Z,7.57
2022-12-18T13:03:48.232Z,7.43
2022-12-18T13:06:25.306Z,7.31
2022-12-18T13:08:57.477Z,7.38
2022-12-18T13:12:00.024Z,7.48
2022-12-18T13:14:33.538Z,7.23
2022-12-18T13:17:30.333Z,7.04
2022-12-18T13:20:22.903Z,7.28
2022-12-18T13:22:54.524Z,7.32
2022-12-18T13:25:30.681Z,7.53
2022-12-18T13:28:10.706Z,7.48
2022-12-18T13:30:57.422Z,7.35
2022-12-18T13:36:38.337Z,6.85
2022-12-18T13:39:30.297Z,6.48
2022-12-18T13:42:59.789Z,6.88
2022-12-18T13:45:47.357Z,5.96
2022-12-18T13:48:21.226Z,6.63
2022-12-18T13:50:57.524Z,6.38
2022-12-18T13:53:31.627Z,6.59
2022-12-18T13:56:01.775Z,6.26
2022-12-18T13:58:30.280Z,6.55
2022-12-18T14:01:00.642Z,6.65
2022-12-18T14:03:31.617Z,6.54
2022-12-18T14:06:08.296Z,6.76
2022-12-18T14:08:45.436Z,6.46
2022-12-18T14:11:33.199Z,6.54
2022-12-18T14:14:02.026Z,6.77
2022-12-18T14:16:35.748Z,6.67
2022-12-18T14:19:14.934Z,5.76
2022-12-18T14:21:50.738Z,5.90
2022-12-18T14:24:22.157Z,6.31
2022-12-18T14:26:55.829Z,6.05
2022-12-18T14:29:28.678Z,5.79
2022-12-18T14:32:14.936Z,6.94
2022-12-18T14:34:46.144Z,6.99
2022-12-18T14:37:16.359Z,6.82
2022-12-18T14:39:55.525Z,6.72
2022-12-18T14:42:29.438Z,6.08
2022-12-18T14:45:44.468Z,6.24
2022-12-18T14:48:19.072Z,6.30
2022-12-18T14:51:01.822Z,6.06
2022-12-18T14:53:39.462Z,5.79
2022-12-18T14:56:23.459Z,5.99
2022-12-18T14:58:56.596Z,5.80
2022-12-18T15:01:29.265Z,5.16
2022-12-18T15:03:58.496Z,5.10
2022-12-18T15:06:33.180Z,5.05
2022-12-18T15:09:03.312Z,5.75
2022-12-18T15:11:54.563Z,5.89
2022-12-18T15:14:45.781Z,5.70
2022-12-18T15:17:21.608Z,5.87
2022-12-18T15:19:54.221Z,5.53
2022-12-18T15:22:25.510Z,5.55
2022-12-18T15:24:54.520Z,6.03
2022-12-18T15:27:25.348Z,5.75
2022-12-18T15:30:24.618Z,4.95
2022-12-18T15:32:59.508Z,5.00
2022-12-18T15:35:28.042Z,5.85
2022-12-18T15:38:02.376Z,5.60
2022-12-18T15:40:30.740Z,5.53
2022-12-18T15:43:12.586Z,5.60
2022-12-18T15:46:09.430Z,6.01
2022-12-18T15:48:42.701Z,5.26
2022-12-18T15:51:15.324Z,5.34
2022-12-18T15:53:44.337Z,5.73
2022-12-18T15:56:31.935Z,5.81
2022-12-18T15:59:00.079Z,5.19
2022-12-18T16:01:35.141Z,5.48
2022-12-18T16:04:06.849Z,5.21
2022-12-18T16:06:51.001Z,4.84
2022-12-18T16:09:26.367Z,5.55
2022-12-18T16:11:58.044Z,5.57
2022-12-18T16:14:28.069Z,5.17
2022-12-18T16:16:59.604Z,5.64
2022-12-18T16:19:28.193Z,6.02
2022-12-18T16:21:57.885Z,6.10
2022-12-18T16:24:27.651Z,5.28
2022-12-18T16:27:01.302Z,5.48
2022-12-18T16:29:33.787Z,5.12
2022-12-18T16:32:07.512Z,4.94
2022-12-18T16:34:43.484Z,5.33
2022-12-18T16:37:19.002Z,5.32
2022-12-18T16:39:54.376Z,5.20
2022-12-18T16:42:24.387Z,5.06
2022-12-18T16:44:53.136Z,4.89
2022-12-18T16:47:30.041Z,4.69
2022-12-18T16:50:04.718Z,4.85
2022-12-18T16:52:37.385Z,4.94
2022-12-18T16:55:35.333Z,5.00
2022-12-18T16:58:07.417Z,4.67
2022-12-18T17:00:41.353Z,4.73
2022-12-18T17:03:15.262Z,4.80
2022-12-18T17:05:55.458Z,4.72
2022-12-18T17:15:20.302Z,4.41
2022-12-18T17:18:48.263Z,4.67
2022-12-18T17:22:46.854Z,4.52
2022-12-18T17:25:43.324Z,4.55
2022-12-18T17:31:45.075Z,4.62
2022-12-18T17:34:50.436Z,4.66
2022-12-18T17:37:24.359Z,4.68
2022-12-18T17:39:52.946Z,4.70
2022-12-18T17:42:30.897Z,4.67
2022-12-18T17:45:49.300Z,4.75
2022-12-18T17:48:19.601Z,4.63
2022-12-18T17:50:50.122Z,4.65
2022-12-18T17:53:21.316Z,4.67
2022-12-18T17:55:57.554Z,4.66
2022-12-18T17:58:34.443Z,4.71
2022-12-18T18:01:14.522Z,4.73
2022-12-18T18:03:47.214Z,4.53
2022-12-18T18:06:21.667Z,4.64
2022-12-18T18:12:19.348Z,4.55
2022-12-18T18:15:55.136Z,4.63
2022-12-18T18:18:44.067Z,4.50
2022-12-18T18:21:38.977Z,4.44
2022-12-18T18:28:27.686Z,4.40
2022-12-18T18:31:02.349Z,4.45
2022-12-18T18:33:52.038Z,4.43
2022-12-18T18:36:34.485Z,4.09
2022-12-18T18:39:11.735Z,4.17
2022-12-18T18:45:35.652Z,4.35
2022-12-18T18:48:56.057Z,4.26
2022-12-18T18:51:28.841Z,4.16
2022-12-18T18:54:57.232Z,4.27
2022-12-18T18:57:33.308Z,4.07
2022-12-18T19:00:09.039Z,4.30
2022-12-18T19:02:41.731Z,4.24
2022-12-18T19:05:36.327Z,4.07
2022-12-18T19:08:23.655Z,4.15
2022-12-18T19:11:36.239Z,4.20
2022-12-18T19:21:48.814Z,4.45
2022-12-18T19:28:35.330Z,4.36
2022-12-18T19:34:34.357Z,4.16
2022-12-18T19:40:52.615Z,4.54
2022-12-18T19:43:32.360Z,4.20
2022-12-18T19:49:33.613Z,4.32
2022-12-18T19:56:32.375Z,4.40
2022-12-18T19:59:05.993Z,4.33
2022-12-18T20:02:13.215Z,4.41
2022-12-18T20:05:11.728Z,4.62
2022-12-18T20:07:47.964Z,4.43
2022-12-18T20:10:42.764Z,4.47
2022-12-18T20:17:46.446Z,4.64
2022-12-18T20:20:50.189Z,4.65
2022-12-18T20:23:37.082Z,4.64
2022-12-18T20:29:48.618Z,4.54
2022-12-18T20:32:16.603Z,4.65
2022-12-18T20:34:44.620Z,4.55
2022-12-18T20:37:13.189Z,4.67
2022-12-18T20:39:43.560Z,4.58
2022-12-18T20:42:12.296Z,4.56
2022-12-18T20:44:40.335Z,4.58
2022-12-18T20:47:08.760Z,4.39
2022-12-18T20:49:37.573Z,4.40
2022-12-18T20:52:07.379Z,4.38
2022-12-18T20:54:35.280Z,4.14
2022-12-18T20:57:04.629Z,4.57
2022-12-18T20:59:32.489Z,4.24
2022-12-18T21:02:00.479Z,4.34
2022-12-18T21:04:28.707Z,4.63
2022-12-18T21:07:02.454Z,3.84
2022-12-18T21:09:37.779Z,4.27
2022-12-18T21:12:38.917Z,4.36
2022-12-18T21:15:11.115Z,4.39
2022-12-18T21:17:45.203Z,4.28
2022-12-18T21:20:17.442Z,4.39
2022-12-18T21:22:46.855Z,4.18
2022-12-18T21:25:14.876Z,4.49
2022-12-18T21:27:44.278Z,4.47
2022-12-18T21:30:13.951Z,4.06
2022-12-18T21:32:42.151Z,4.08
2022-12-18T21:35:10.619Z,4.41
2022-12-18T21:37:38.447Z,4.43
2022-12-18T21:40:07.709Z,4.37
2022-12-18T21:42:52.969Z,4.18
2022-12-18T21:45:22.263Z,4.42
2022-12-18T21:47:50.062Z,4.13
2022-12-18T21:50:18.072Z,4.53
2022-12-18T21:52:45.925Z,4.56
2022-12-18T21:55:13.783Z,4.65
2022-12-18T21:57:41.672Z,4.54
2022-12-18T22:00:16.868Z,4.68
2022-12-18T22:03:05.672Z,4.62
2022-12-18T22:05:37.091Z,4.32
2022-12-18T22:08:06.615Z,4.44
2022-12-18T22:10:34.982Z,4.71
2022-12-18T22:13:05.471Z,4.74
2022-12-18T22:15:33.526Z,4.66
2022-12-18T22:18:02.794Z,4.57
2022-12-18T22:20:30.693Z,4.77
2022-12-18T22:23:01.065Z,4.71
2022-12-18T22:25:33.806Z,4.69
2022-12-18T22:28:20.803Z,4.66
2022-12-18T22:30:48.809Z,4.61
2022-12-18T22:33:21.122Z,4.76
2022-12-18T22:35:48.991Z,4.60
2022-12-18T22:38:17.045Z,4.62
2022-12-18T22:40:44.866Z,4.80
2022-12-18T22:43:12.763Z,4.57
2022-12-18T22:45:40.598Z,4.54
2022-12-18T22:48:08.658Z,4.59
2022-12-18T22:50:37.872Z,4.28
2022-12-18T22:53:07.720Z,4.46
2022-12-18T22:55:35.590Z,4.24
2022-12-18T22:58:03.469Z,4.23
2022-12-18T23:00:31.688Z,4.21
2022-12-18T23:03:01.089Z,4.46
2022-12-18T23:05:30.690Z,4.41
2022-12-18T23:08:00.084Z,4.43
2022-12-18T23:10:28.584Z,4.29
2022-12-18T23:12:56.507Z,4.42
2022-12-18T23:15:26.081Z,4.07
2022-12-18T23:17:57.133Z,4.05
2022-12-18T23:20:24.994Z,4.21
2022-12-18T23:22:52.880Z,4.25
2022-12-18T23:25:22.089Z,4.26
2022-12-18T23:27:49.894Z,4.35
2022-12-18T23:30:17.864Z,3.74
2022-12-18T23:32:45.683Z,4.46
2022-12-18T23:35:15.618Z,4.39
2022-12-18T23:37:59.429Z,4.14
2022-12-18T23:40:29.912Z,4.02
2022-12-18T23:42:57.677Z,4.20
2022-12-18T23:45:25.578Z,4.30
2022-12-18T23:47:53.447Z,4.36
2022-12-18T23:50:24.035Z,4.41
2022-12-18T23:53:02.080Z,4.76
2022-12-18T23:55:39.589Z,4.68
2022-12-18T23:58:07.873Z,4.24
